Time;durP1;ratioP1;P1;durP2;ratioP2;P2;SDS_P1;SDS_P2;PMS_P1;PMS_P2;Temp;Humidity;BMP_temperature;BMP_pressure;BME280_temperature;BME280_humidity;BME280_pressure;Samples;Min_cycle;Max_cycle;Signal;HPM_P1;HPM_P2
2024/01/28 00:01:32;;;;;;;22.00;8.02;;;;;;;0.86;100.00;103120.06;4985477;28;20501;-75
2024/01/28 00:03:57;;;;;;;22.15;8.93;;;;;;;0.84;100.00;103107.69;4983066;28;20129;-73
2024/01/28 00:06:23;;;;;;;22.73;8.43;;;;;;;0.83;100.00;103101.47;4994737;28;20895;-72
2024/01/28 00:08:48;;;;;;;25.02;9.82;;;;;;;0.83;100.00;103101.47;4995806;28;20051;-73
2024/01/28 00:11:13;;;;;;;21.90;9.43;;;;;;;0.82;100.00;103097.09;4997864;28;20050;-73
2024/01/28 00:13:38;;;;;;;23.30;9.55;;;;;;;0.83;100.00;103093.53;4996897;28;20038;-73
2024/01/28 00:16:04;;;;;;;20.67;8.23;;;;;;;0.82;100.00;103093.53;4999910;28;20141;-74
2024/01/28 00:18:30;;;;;;;22.15;8.63;;;;;;;0.81;100.00;103086.50;4993961;28;20042;-73
2024/01/28 00:20:55;;;;;;;22.45;9.00;;;;;;;0.83;100.00;103087.38;4993786;28;20112;-72
2024/01/28 00:23:20;;;;;;;24.67;9.75;;;;;;;0.83;100.00;103082.94;4998942;28;20104;-74
2024/01/28 00:25:46;;;;;;;25.35;9.40;;;;;;;0.86;100.00;103082.09;5013198;28;20073;-73
2024/01/28 00:28:11;;;;;;;23.10;7.93;;;;;;;0.86;100.00;103076.78;5014468;28;20046;-73
2024/01/28 00:30:36;;;;;;;26.10;10.07;;;;;;;0.85;100.00;103075.94;5018876;28;20030;-73
2024/01/28 00:33:02;;;;;;;24.73;9.30;;;;;;;0.82;100.00;103075.91;5000588;28;20389;-73
2024/01/28 00:35:27;;;;;;;23.00;8.85;;;;;;;0.81;100.00;103076.78;5000702;28;20049;-73
2024/01/28 00:37:54;;;;;;;28.17;8.85;;;;;;;0.78;100.00;103079.41;5000432;28;20037;-73
2024/01/28 00:40:20;;;;;;;23.17;8.77;;;;;;;0.74;100.00;103079.41;5020219;28;20377;-73
2024/01/28 00:42:46;;;;;;;19.70;8.48;;;;;;;0.74;100.00;103076.75;5022861;28;20069;-73
2024/01/28 00:45:11;;;;;;;25.40;8.52;;;;;;;0.71;100.00;103074.97;5003051;28;20026;-74
2024/01/28 00:47:39;;;;;;;19.90;7.57;;;;;;;0.69;100.00;103069.69;5003618;28;20029;-74
2024/01/28 00:50:06;;;;;;;24.05;8.77;;;;;;;0.63;100.00;103059.09;5022045;28;20121;-74
2024/01/28 00:52:31;;;;;;;23.95;8.13;;;;;;;0.65;100.00;103056.44;5021534;28;20026;-73
2024/01/28 00:54:57;;;;;;;24.88;8.65;;;;;;;0.67;100.00;103055.56;5002191;28;20419;-75
2024/01/28 00:57:22;;;;;;;23.80;10.30;;;;;;;0.72;100.00;103052.03;5004486;28;20030;-73
2024/01/28 00:59:47;;;;;;;23.55;9.48;;;;;;;0.75;100.00;103046.75;5003339;28;20148;-73
2024/01/28 01:02:13;;;;;;;21.55;9.10;;;;;;;0.79;100.00;103048.53;5020204;28;20061;-72
2024/01/28 01:04:38;;;;;;;28.75;10.07;;;;;;;0.79;100.00;103049.44;5018525;28;20081;-74
2024/01/28 01:07:03;;;;;;;26.23;8.68;;;;;;;0.81;100.00;103039.72;5021367;28;20029;-73
2024/01/28 01:09:29;;;;;;;23.75;8.75;;;;;;;0.83;100.00;103034.44;5004642;28;20117;-75
2024/01/28 01:11:54;;;;;;;23.80;9.30;;;;;;;0.83;100.00;103040.59;5020888;28;20064;-73
2024/01/28 01:14:19;;;;;;;27.40;10.98;;;;;;;0.83;100.00;103037.94;5021313;28;20056;-72
2024/01/28 01:16:44;;;;;;;22.13;8.85;;;;;;;0.81;100.00;103029.13;5021576;28;20418;-74
2024/01/28 01:19:10;;;;;;;23.75;8.57;;;;;;;0.76;100.00;103033.56;5004114;28;20104;-73
2024/01/28 01:21:35;;;;;;;23.73;9.00;;;;;;;0.74;100.00;103031.78;5018167;28;20029;-73
2024/01/28 01:24:00;;;;;;;21.45;8.18;;;;;;;0.69;100.00;103039.69;5017507;28;20037;-74
2024/01/28 01:26:28;;;;;;;26.70;9.68;;;;;;;0.67;100.00;103034.41;5018646;28;20061;-73
2024/01/28 01:28:53;;;;;;;23.20;8.70;;;;;;;0.58;100.00;103023.78;5018725;28;20049;-74
2024/01/28 01:31:19;;;;;;;22.75;8.48;;;;;;;0.52;100.00;103026.41;5004641;28;20021;-72
2024/01/28 01:33:45;;;;;;;28.88;10.85;;;;;;;0.47;100.00;103030.78;5017055;28;20032;-73
2024/01/28 01:36:10;;;;;;;20.88;8.77;;;;;;;0.42;100.00;103024.59;5021966;28;20029;-73
2024/01/28 01:38:36;;;;;;;24.45;9.57;;;;;;;0.38;100.00;103021.06;5003798;28;20025;-73
2024/01/28 01:41:01;;;;;;;23.83;9.63;;;;;;;0.35;100.00;103028.97;5021145;28;20033;-73
2024/01/28 01:43:26;;;;;;;22.33;9.30;;;;;;;0.33;100.00;103028.94;5021602;28;20022;-72
2024/01/28 01:45:52;;;;;;;23.98;8.95;;;;;;;0.26;100.00;103027.16;5019268;28;20093;-73
2024/01/28 01:48:18;;;;;;;26.38;8.88;;;;;;;0.22;100.00;103029.78;5022408;28;20025;-74
2024/01/28 01:50:44;;;;;;;25.40;9.02;;;;;;;0.19;100.00;103033.31;5022054;28;20230;-72
2024/01/28 01:53:10;;;;;;;21.92;8.70;;;;;;;0.10;100.00;103036.81;5022831;28;20038;-74
2024/01/28 01:55:38;;;;;;;25.05;9.00;;;;;;;0.07;100.00;103043.81;5005496;28;20041;-75
2024/01/28 01:58:04;;;;;;;25.17;8.25;;;;;;;0.02;100.00;103045.56;5021987;28;20040;-74
2024/01/28 02:00:31;;;;;;;24.92;10.35;;;;;;;-0.04;100.00;103039.34;5008633;28;20123;-74
2024/01/28 02:02:56;;;;;;;22.30;8.52;;;;;;;-0.06;100.00;103038.47;5006195;28;20033;-75
2024/01/28 02:05:22;;;;;;;20.13;8.20;;;;;;;-0.06;100.00;103034.91;5004942;28;20022;-75
2024/01/28 02:07:47;;;;;;;27.02;9.00;;;;;;;-0.07;100.00;103027.88;5005349;28;20021;-75
2024/01/28 02:10:13;;;;;;;24.67;8.73;;;;;;;-0.11;100.00;103037.53;5021477;28;20105;-75
2024/01/28 02:12:38;;;;;;;25.63;9.60;;;;;;;-0.10;100.00;103038.41;5004891;28;20030;-75
2024/01/28 02:15:12;;;;;;;22.15;9.50;;;;;;;-0.11;100.00;103021.66;5001833;28;20036;-75
2024/01/28 02:17:37;;;;;;;20.95;8.98;;;;;;;-0.14;100.00;103013.72;5022267;28;20057;-75
2024/01/28 02:20:03;;;;;;;20.83;8.02;;;;;;;-0.16;100.00;103011.94;5018664;28;20037;-74
2024/01/28 02:22:29;;;;;;;21.25;8.10;;;;;;;-0.17;100.00;103005.78;5020540;28;20026;-74
2024/01/28 02:24:55;;;;;;;22.23;8.57;;;;;;;-0.17;100.00;103008.44;5022596;28;20032;-75
2024/01/28 02:27:20;;;;;;;21.98;8.90;;;;;;;-0.21;100.00;103007.50;5018121;28;20053;-75
2024/01/28 02:29:46;;;;;;;28.40;10.48;;;;;;;-0.21;100.00;102998.69;5020590;28;20063;-75
2024/01/28 02:32:15;;;;;;;23.75;9.18;;;;;;;-0.27;100.00;102999.53;5016005;28;20045;-75
2024/01/28 02:34:40;;;;;;;23.95;9.98;;;;;;;-0.27;100.00;102991.63;5017860;28;20018;-74
2024/01/28 02:37:06;;;;;;;25.75;9.35;;;;;;;-0.27;100.00;102978.41;5003414;28;20026;-75
2024/01/28 02:39:31;;;;;;;24.30;9.57;;;;;;;-0.25;100.00;102979.31;5007400;28;20022;-75
2024/01/28 02:41:56;;;;;;;30.38;10.60;;;;;;;-0.25;100.00;102975.78;5020034;28;20477;-75
2024/01/28 02:44:22;;;;;;;27.52;11.10;;;;;;;-0.23;100.00;102968.75;5020103;28;20060;-75
2024/01/28 02:46:47;;;;;;;21.73;9.30;;;;;;;-0.25;100.00;102975.78;5002229;28;20065;-75
2024/01/28 02:49:12;;;;;;;23.25;8.93;;;;;;;-0.27;100.00;102966.97;5017955;28;20563;-74
2024/01/28 02:51:37;;;;;;;21.02;7.93;;;;;;;-0.27;100.00;102977.53;5018242;28;20025;-75
2024/01/28 02:54:03;;;;;;;24.33;9.63;;;;;;;-0.27;100.00;102982.81;5021037;28;20111;-75
2024/01/28 02:56:29;;;;;;;22.15;10.30;;;;;;;-0.34;100.00;102967.78;5002379;28;20089;-75
2024/01/28 02:58:54;;;;;;;25.95;10.88;;;;;;;-0.33;100.00;102973.09;5001799;28;20022;-75
2024/01/28 03:01:20;;;;;;;22.67;10.23;;;;;;;-0.36;100.00;102975.72;5018671;28;20022;-75
2024/01/28 03:03:45;;;;;;;22.17;9.02;;;;;;;-0.40;100.00;102979.19;5018684;28;20033;-74
2024/01/28 03:06:11;;;;;;;25.05;9.75;;;;;;;-0.41;100.00;102972.13;4997622;28;20377;-74
2024/01/28 03:08:36;;;;;;;22.98;9.15;;;;;;;-0.42;100.00;102968.63;5008238;28;20022;-74
2024/01/28 03:11:01;;;;;;;24.63;9.88;;;;;;;-0.45;100.00;102963.31;5011580;28;20109;-74
2024/01/28 03:13:27;;;;;;;23.25;9.70;;;;;;;-0.51;100.00;102968.56;4995605;28;20022;-74
2024/01/28 03:15:54;;;;;;;23.80;9.90;;;;;;;-0.53;100.00;102959.72;4997349;28;20163;-74
2024/01/28 03:18:20;;;;;;;25.25;10.27;;;;;;;-0.52;100.00;102948.31;5010586;28;20032;-74
2024/01/28 03:20:45;;;;;;;22.40;9.55;;;;;;;-0.57;100.00;102944.72;5011445;28;20369;-74
2024/01/28 03:23:10;;;;;;;24.15;10.45;;;;;;;-0.57;100.00;102944.72;4995408;28;20119;-74
2024/01/28 03:25:36;;;;;;;22.27;10.15;;;;;;;-0.58;100.00;102956.19;5010027;28;20026;-74
2024/01/28 03:28:01;;;;;;;26.35;9.68;;;;;;;-0.61;100.00;102949.13;5012368;28;20075;-74
2024/01/28 03:30:26;;;;;;;24.15;9.63;;;;;;;-0.60;100.00;102952.63;5011859;28;20030;-74
2024/01/28 03:32:52;;;;;;;26.27;9.90;;;;;;;-0.60;100.00;102948.25;5011470;28;20038;-75
2024/01/28 03:35:17;;;;;;;20.45;9.23;;;;;;;-0.63;100.00;102944.69;5011821;28;20056;-75
2024/01/28 03:37:42;;;;;;;22.15;9.60;;;;;;;-0.69;100.00;102958.72;4996494;28;20030;-75
2024/01/28 03:40:09;;;;;;;25.08;10.07;;;;;;;-0.70;100.00;102949.06;4994114;28;20040;-75
2024/01/28 03:42:34;;;;;;;21.08;8.00;;;;;;;-0.73;100.00;102944.63;5011134;28;20037;-75
2024/01/28 03:44:59;;;;;;;21.67;9.80;;;;;;;-0.73;100.00;102943.75;5011910;28;20033;-75
2024/01/28 03:47:25;;;;;;;21.55;9.15;;;;;;;-0.77;100.00;102941.97;5009145;28;20069;-75
2024/01/28 03:49:50;;;;;;;23.80;8.88;;;;;;;-0.81;100.00;102938.41;4992950;28;20092;-75
2024/01/28 03:52:16;;;;;;;25.83;9.30;;;;;;;-0.84;100.00;102927.81;4993109;28;20026;-75
2024/01/28 03:54:41;;;;;;;21.65;9.02;;;;;;;-0.84;100.00;102929.59;5009560;28;20068;-75
2024/01/28 03:57:07;;;;;;;22.73;8.50;;;;;;;-0.86;100.00;102926.94;5008105;28;20037;-75
2024/01/28 03:59:32;;;;;;;23.02;8.18;;;;;;;-0.84;100.00;102933.09;5009975;28;20335;-74
2024/01/28 04:01:57;;;;;;;24.95;9.52;;;;;;;-0.82;100.00;102936.66;5010625;28;20037;-74
2024/01/28 04:04:23;;;;;;;20.73;8.68;;;;;;;-0.78;100.00;102937.56;4991210;28;20178;-74
2024/01/28 04:06:48;;;;;;;28.23;8.95;;;;;;;-0.71;100.00;102934.97;5008398;28;20037;-74
2024/01/28 04:09:13;;;;;;;23.35;8.20;;;;;;;-0.67;100.00;102943.81;5009944;28;20030;-74
2024/01/28 04:11:39;;;;;;;20.10;8.80;;;;;;;-0.72;100.00;102935.84;5009314;28;20441;-74
2024/01/28 04:14:04;;;;;;;20.15;7.43;;;;;;;-0.72;100.00;102938.50;5012999;28;20084;-74
2024/01/28 04:16:32;;;;;;;20.75;7.57;;;;;;;-0.73;100.00;102936.72;5017640;28;20026;-74
2024/01/28 04:18:57;;;;;;;23.83;7.40;;;;;;;-0.74;100.00;102932.31;5000329;28;20072;-74
2024/01/28 04:21:26;;;;;;;21.95;7.63;;;;;;;-0.78;100.00;102935.78;5018804;28;20018;-74
2024/01/28 04:23:52;;;;;;;19.60;7.38;;;;;;;-0.76;100.00;102923.50;5002028;28;20038;-74
2024/01/28 04:26:18;;;;;;;22.05;7.70;;;;;;;-0.75;100.00;102922.63;5002776;28;20061;-74
2024/01/28 04:28:43;;;;;;;23.63;8.65;;;;;;;-0.73;100.00;102918.22;5021866;28;20026;-74
2024/01/28 04:31:08;;;;;;;22.83;7.47;;;;;;;-0.68;100.00;102915.63;5004426;28;20567;-74
2024/01/28 04:33:33;;;;;;;23.48;9.00;;;;;;;-0.65;100.00;102912.13;5004380;28;20018;-74
2024/01/28 04:35:59;;;;;;;21.77;7.25;;;;;;;-0.64;100.00;102905.97;5021813;28;20054;-75
2024/01/28 04:38:24;;;;;;;21.73;7.57;;;;;;;-0.60;100.00;102898.09;5004091;28;20026;-74
2024/01/28 04:40:49;;;;;;;21.58;7.25;;;;;;;-0.57;100.00;102895.47;5001560;28;20025;-74
2024/01/28 04:43:15;;;;;;;26.13;8.73;;;;;;;-0.54;100.00;102897.25;5003497;28;20025;-74
2024/01/28 04:45:41;;;;;;;22.52;7.32;;;;;;;-0.49;100.00;102903.41;5002500;28;20124;-74
2024/01/28 04:48:07;;;;;;;19.98;7.30;;;;;;;-0.48;100.00;102899.91;5019753;28;20053;-74
2024/01/28 04:50:32;;;;;;;21.80;7.50;;;;;;;-0.44;100.00;102893.78;5016295;28;20034;-74
2024/01/28 04:52:57;;;;;;;20.27;7.43;;;;;;;-0.41;100.00;102896.44;5016180;28;20038;-74
2024/01/28 04:55:22;;;;;;;20.38;6.93;;;;;;;-0.37;100.00;102889.41;5019389;28;20618;-74
2024/01/28 04:57:48;;;;;;;20.73;6.88;;;;;;;-0.34;100.00;102886.75;5000069;28;20045;-73
2024/01/28 05:00:14;;;;;;;31.50;8.63;;;;;;;-0.31;100.00;102888.53;4999999;28;20068;-74
2024/01/28 05:02:39;;;;;;;23.42;6.65;;;;;;;-0.27;100.00;102885.03;5016421;28;20099;-74
2024/01/28 05:05:05;;;;;;;23.65;7.45;;;;;;;-0.29;100.00;102882.41;5000694;28;20048;-74
2024/01/28 05:07:30;;;;;;;23.35;6.32;;;;;;;-0.30;100.00;102888.56;5018563;28;20026;-75
2024/01/28 05:09:57;;;;;;;20.60;6.65;;;;;;;-0.32;100.00;102894.69;5002178;28;20121;-74
2024/01/28 05:12:22;;;;;;;19.38;7.32;;;;;;;-0.37;100.00;102897.31;5019188;28;20030;-74
2024/01/28 05:14:48;;;;;;;19.88;6.53;;;;;;;-0.40;100.00;102886.72;4999269;28;20540;-74
2024/01/28 05:17:13;;;;;;;21.90;7.20;;;;;;;-0.43;100.00;102887.59;5000719;28;20021;-74
2024/01/28 05:19:38;;;;;;;25.08;7.53;;;;;;;-0.43;100.00;102881.44;5023778;28;20401;-75
2024/01/28 05:22:04;;;;;;;19.70;6.53;;;;;;;-0.44;100.00;102885.84;5017261;28;20033;-74
2024/01/28 05:24:30;;;;;;;21.63;7.05;;;;;;;-0.45;100.00;102877.91;5000154;28;20501;-74
2024/01/28 05:26:55;;;;;;;21.95;6.75;;;;;;;-0.48;100.00;102873.50;4992810;28;20331;-74
2024/01/28 05:29:20;;;;;;;23.60;7.57;;;;;;;-0.46;100.00;102871.72;4991676;28;20033;-74
2024/01/28 05:31:46;;;;;;;22.52;8.25;;;;;;;-0.44;100.00;102872.66;4995790;28;20136;-74
2024/01/28 05:34:11;;;;;;;20.88;7.25;;;;;;;-0.44;100.00;102861.16;5012685;28;20037;-74
2024/01/28 05:36:37;;;;;;;20.05;6.88;;;;;;;-0.46;100.00;102866.44;4987975;28;20030;-74
2024/01/28 05:39:02;;;;;;;20.85;6.53;;;;;;;-0.44;100.00;102858.53;5010885;28;20611;-74
2024/01/28 05:41:28;;;;;;;24.88;6.82;;;;;;;-0.43;100.00;102850.63;4991088;28;20097;-75
2024/01/28 05:43:53;;;;;;;21.30;7.25;;;;;;;-0.40;100.00;102837.41;4991528;28;20022;-74
2024/01/28 05:46:19;;;;;;;18.13;6.78;;;;;;;-0.39;100.00;102843.59;4992152;28;20021;-74
2024/01/28 05:48:44;;;;;;;21.05;6.22;;;;;;;-0.40;100.00;102837.41;5008520;28;20029;-75
2024/01/28 05:51:13;;;;;;;21.10;7.10;;;;;;;-0.40;100.00;102845.34;4990440;28;20029;-75
2024/01/28 05:53:38;;;;;;;21.42;7.18;;;;;;;-0.39;100.00;102839.19;4991225;28;20481;-74
2024/01/28 05:56:04;;;;;;;21.02;8.43;;;;;;;-0.38;100.00;102838.31;5008720;28;20034;-75
2024/01/28 05:58:29;;;;;;;20.30;6.97;;;;;;;-0.36;100.00;102836.56;4989074;28;20033;-74
2024/01/28 06:00:55;;;;;;;19.65;6.95;;;;;;;-0.36;100.00;102828.63;5004913;28;20036;-75
2024/01/28 06:03:20;;;;;;;20.48;6.78;;;;;;;-0.34;100.00;102819.84;4992721;28;20060;-75
2024/01/28 06:05:45;;;;;;;25.70;7.90;;;;;;;-0.34;100.00;102819.84;5004682;28;20030;-74
2024/01/28 06:08:13;;;;;;;20.75;7.70;;;;;;;-0.32;100.00;102820.72;5008485;28;20396;-75
2024/01/28 06:10:39;;;;;;;21.85;7.15;;;;;;;-0.30;100.00;102818.97;5008744;28;20032;-75
2024/01/28 06:13:04;;;;;;;20.70;8.90;;;;;;;-0.30;100.00;102813.69;4994406;28;20212;-74
2024/01/28 06:15:29;;;;;;;21.13;7.18;;;;;;;-0.29;100.00;102807.50;5008271;28;20466;-74
2024/01/28 06:17:55;;;;;;;19.08;7.13;;;;;;;-0.29;100.00;102805.78;5007325;28;20030;-74
2024/01/28 06:20:20;;;;;;;23.27;7.68;;;;;;;-0.29;100.00;102805.78;4986533;28;20026;-75
2024/01/28 06:22:45;;;;;;;23.20;7.40;;;;;;;-0.29;100.00;102804.88;5007866;28;20038;-75
2024/01/28 06:25:11;;;;;;;17.90;6.68;;;;;;;-0.29;100.00;102804.88;4990342;28;20128;-75
2024/01/28 06:27:36;;;;;;;19.52;6.57;;;;;;;-0.28;100.00;102812.84;5003780;28;20046;-75
2024/01/28 06:30:01;;;;;;;19.17;6.47;;;;;;;-0.26;100.00;102810.19;5005993;28;20042;-74
2024/01/28 06:32:27;;;;;;;19.60;7.72;;;;;;;-0.25;100.00;102806.66;4990300;28;20560;-75
2024/01/28 06:34:52;;;;;;;19.92;6.47;;;;;;;-0.25;100.00;102806.66;4990583;28;20033;-74
2024/01/28 06:37:18;;;;;;;22.25;6.57;;;;;;;-0.25;100.00;102807.56;5012098;28;20041;-75
2024/01/28 06:39:43;;;;;;;21.13;6.65;;;;;;;-0.27;100.00;102803.13;4992394;28;20018;-74
2024/01/28 06:42:09;;;;;;;20.38;7.47;;;;;;;-0.28;100.00;102791.69;5010969;28;20030;-74
2024/01/28 06:44:36;;;;;;;20.63;7.20;;;;;;;-0.31;100.00;102796.94;4994572;28;20032;-74
2024/01/28 06:47:03;;;;;;;23.85;7.18;;;;;;;-0.32;100.00;102796.94;5007520;28;20034;-75
2024/01/28 06:49:28;;;;;;;24.52;6.65;;;;;;;-0.34;100.00;102794.28;5007659;28;20473;-74
2024/01/28 06:51:54;;;;;;;20.08;6.90;;;;;;;-0.32;100.00;102796.94;5007119;28;20033;-74
2024/01/28 06:54:19;;;;;;;21.30;6.25;;;;;;;-0.36;100.00;102794.28;5011277;28;20029;-75
2024/01/28 06:56:45;;;;;;;20.80;7.05;;;;;;;-0.38;100.00;102796.06;5010520;28;20128;-75
2024/01/28 06:59:11;;;;;;;22.23;6.85;;;;;;;-0.40;100.00;102784.56;5010864;28;20048;-74
2024/01/28 07:01:36;;;;;;;19.10;6.38;;;;;;;-0.41;100.00;102790.75;5011193;28;20029;-75
2024/01/28 07:04:01;;;;;;;25.35;6.25;;;;;;;-0.39;100.00;102786.34;5011377;28;20044;-75
2024/01/28 07:06:27;;;;;;;18.33;5.93;;;;;;;-0.38;100.00;102781.94;4990558;28;20473;-75
2024/01/28 07:08:52;;;;;;;17.73;6.03;;;;;;;-0.38;100.00;102796.06;4993274;28;20036;-74
2024/01/28 07:11:17;;;;;;;18.13;6.60;;;;;;;-0.37;100.00;102794.28;5010266;28;20040;-74
2024/01/28 07:13:43;;;;;;;19.38;5.68;;;;;;;-0.35;100.00;102795.19;5009913;28;20504;-74
2024/01/28 07:16:09;;;;;;;16.67;6.03;;;;;;;-0.33;100.00;102798.72;5010879;28;20437;-74
2024/01/28 07:18:35;;;;;;;15.52;5.95;;;;;;;-0.32;100.00;102795.19;5010681;28;20465;-74
2024/01/28 07:21:02;;;;;;;16.88;5.40;;;;;;;-0.30;100.00;102795.19;5010220;28;20040;-74
2024/01/28 07:23:27;;;;;;;15.77;5.25;;;;;;;-0.30;100.00;102790.78;4992692;28;20038;-74
2024/01/28 07:25:52;;;;;;;21.75;5.57;;;;;;;-0.26;100.00;102781.13;4995495;28;20381;-75
2024/01/28 07:28:18;;;;;;;16.10;6.18;;;;;;;-0.28;100.00;102782.88;5008739;28;20598;-74
2024/01/28 07:30:43;;;;;;;16.25;5.30;;;;;;;-0.28;100.00;102785.50;5009994;28;20029;-74
2024/01/28 07:33:08;;;;;;;18.00;5.53;;;;;;;-0.27;100.00;102779.34;4992606;28;20057;-74
2024/01/28 07:35:34;;;;;;;16.35;5.40;;;;;;;-0.26;100.00;102787.28;5008477;28;20032;-75
2024/01/28 07:38:00;;;;;;;19.27;6.55;;;;;;;-0.25;100.00;102781.13;5010150;28;20033;-75
2024/01/28 07:40:28;;;;;;;19.52;5.38;;;;;;;-0.26;100.00;102778.50;4993195;28;20022;-75
2024/01/28 07:42:55;;;;;;;14.20;4.82;;;;;;;-0.26;100.00;102770.56;5010793;28;20030;-75
2024/01/28 07:45:21;;;;;;;18.70;6.68;;;;;;;-0.22;100.00;102769.66;5015545;28;20021;-73
2024/01/28 07:47:46;;;;;;;21.55;7.00;;;;;;;-0.21;100.00;102769.66;5021516;28;20033;-74
2024/01/28 07:50:11;;;;;;;18.50;5.95;;;;;;;-0.20;100.00;102765.28;5005411;28;20294;-73
2024/01/28 07:52:36;;;;;;;15.82;5.22;;;;;;;-0.20;100.00;102770.56;5020532;28;20022;-73
2024/01/28 07:55:02;;;;;;;20.77;6.20;;;;;;;-0.18;100.00;102784.66;5022771;28;20120;-72
2024/01/28 07:57:27;;;;;;;19.77;5.95;;;;;;;-0.16;100.00;102769.72;5021869;28;20083;-72
2024/01/28 07:59:52;;;;;;;21.25;7.72;;;;;;;-0.15;100.00;102763.53;5003388;28;20022;-74
2024/01/28 08:02:18;;;;;;;17.67;5.55;;;;;;;-0.14;100.00;102765.28;5021577;28;20072;-74
2024/01/28 08:04:44;;;;;;;18.33;6.45;;;;;;;-0.10;100.00;102761.78;5003934;28;20049;-72
2024/01/28 08:07:10;;;;;;;19.40;5.72;;;;;;;-0.06;100.00;102760.00;4998920;28;20041;-74
2024/01/28 08:09:36;;;;;;;17.25;6.32;;;;;;;-0.06;100.00;102760.91;5023301;28;20029;-72
2024/01/28 08:12:03;;;;;;;20.27;6.95;;;;;;;-0.04;100.00;102769.72;5020718;28;20197;-72
2024/01/28 08:14:28;;;;;;;21.30;6.35;;;;;;;-0.02;100.00;102767.06;5006005;28;20026;-73
2024/01/28 08:16:54;;;;;;;18.23;5.40;;;;;;;0.01;100.00;102763.56;5006304;28;20053;-72
2024/01/28 08:19:20;;;;;;;16.70;6.10;;;;;;;0.04;100.00;102760.91;5018293;28;20064;-72
2024/01/28 08:21:45;;;;;;;23.98;6.72;;;;;;;0.07;100.00;102760.91;4998128;28;20029;-72
2024/01/28 08:24:10;;;;;;;17.27;5.65;;;;;;;0.09;100.00;102754.75;4999118;28;20471;-72
2024/01/28 08:26:36;;;;;;;19.90;6.35;;;;;;;0.11;100.00;102750.34;4999738;28;20061;-72
2024/01/28 08:29:02;;;;;;;17.27;5.18;;;;;;;0.16;100.00;102753.00;5014976;28;20034;-71
2024/01/28 08:31:28;;;;;;;19.63;7.10;;;;;;;0.19;100.00;102760.06;5016112;28;20045;-72
2024/01/28 08:33:54;;;;;;;15.80;5.28;;;;;;;0.23;100.00;102744.19;5015725;28;20305;-72
2024/01/28 08:36:19;;;;;;;19.13;5.68;;;;;;;0.29;100.00;102745.94;5015826;28;20044;-74
2024/01/28 08:38:44;;;;;;;16.90;5.50;;;;;;;0.34;100.00;102742.44;4996905;28;20090;-72
2024/01/28 08:41:10;;;;;;;19.45;6.50;;;;;;;0.39;100.00;102736.25;5014326;28;20026;-73
2024/01/28 08:43:35;;;;;;;22.33;5.72;;;;;;;0.44;100.00;102745.97;4995673;28;20118;-73
2024/01/28 08:46:03;;;;;;;21.65;5.60;;;;;;;0.50;100.00;102739.78;5014442;28;20591;-72
2024/01/28 08:48:28;;;;;;;20.23;6.50;;;;;;;0.57;100.00;102725.69;4999546;28;20072;-72
2024/01/28 08:50:53;;;;;;;17.15;5.72;;;;;;;0.62;100.00;102726.53;5014242;28;20075;-72
2024/01/28 08:53:19;;;;;;;16.45;5.93;;;;;;;0.72;100.00;102734.44;4997942;28;20017;-73
2024/01/28 08:55:44;;;;;;;22.52;5.93;;;;;;;0.77;100.00;102736.22;5015289;28;20108;-74
2024/01/28 08:58:09;;;;;;;19.55;6.35;;;;;;;0.82;100.00;102734.44;5018041;28;20021;-74
2024/01/28 09:00:35;;;;;;;18.73;6.35;;;;;;;0.85;100.00;102731.78;5003989;28;20026;-74
2024/01/28 09:03:00;;;;;;;16.70;6.85;;;;;;;0.91;100.00;102735.28;5002921;28;20079;-73
2024/01/28 09:05:25;;;;;;;21.08;7.50;;;;;;;0.99;100.00;102738.81;5002683;28;20381;-74
2024/01/28 09:07:51;;;;;;;18.35;7.45;;;;;;;1.04;100.00;102726.44;5019214;28;20030;-74
2024/01/28 09:10:18;;;;;;;21.95;8.52;;;;;;;1.11;100.00;102727.28;5022127;28;20026;-74
2024/01/28 09:12:44;;;;;;;22.70;8.32;;;;;;;1.16;100.00;102736.13;5003100;28;20129;-74
2024/01/28 09:15:09;;;;;;;21.55;8.15;;;;;;;1.22;100.00;102728.16;5007046;28;20053;-74
2024/01/28 09:17:34;;;;;;;22.23;8.57;;;;;;;1.28;100.00;102729.88;5020745;28;20033;-74
2024/01/28 09:19:59;;;;;;;24.23;8.25;;;;;;;1.33;100.00;102725.44;5020555;28;20381;-74
2024/01/28 09:22:25;;;;;;;21.38;6.95;;;;;;;1.38;100.00;102721.88;5021674;28;20374;-74
2024/01/28 09:24:50;;;;;;;19.15;7.25;;;;;;;1.45;100.00;102719.19;5019984;28;20247;-74
2024/01/28 09:27:17;;;;;;;20.30;7.65;;;;;;;1.51;99.70;102711.25;5002770;28;20578;-74
2024/01/28 09:29:42;;;;;;;21.20;6.60;;;;;;;1.56;98.18;102710.31;5000324;28;20477;-74
2024/01/28 09:32:07;;;;;;;17.75;6.55;;;;;;;1.63;96.73;102705.84;5000401;28;20064;-74
2024/01/28 09:34:33;;;;;;;19.60;6.43;;;;;;;1.70;96.77;102714.66;5017113;28;20470;-74
2024/01/28 09:36:58;;;;;;;15.73;5.72;;;;;;;1.76;97.36;102709.31;5019292;28;20061;-74
2024/01/28 09:39:24;;;;;;;17.98;6.80;;;;;;;1.85;96.60;102705.72;4997356;28;20029;-74
2024/01/28 09:41:49;;;;;;;19.90;6.47;;;;;;;1.89;95.61;102708.34;4999474;28;20021;-74
2024/01/28 09:44:15;;;;;;;16.42;6.13;;;;;;;1.96;95.21;102709.16;5017548;28;20105;-74
2024/01/28 09:46:41;;;;;;;21.17;6.10;;;;;;;2.06;94.85;102707.31;5001754;28;20029;-74
2024/01/28 09:49:11;;;;;;;19.88;5.55;;;;;;;2.12;94.78;102704.63;5019574;28;20038;-74
2024/01/28 09:51:37;;;;;;;19.27;6.10;;;;;;;2.18;94.73;102703.69;5018083;28;20045;-74
2024/01/28 09:54:03;;;;;;;20.63;5.95;;;;;;;2.24;92.98;102703.63;4999365;28;20030;-74
2024/01/28 09:56:29;;;;;;;17.20;5.53;;;;;;;2.34;93.20;102702.66;5002060;28;20036;-74
2024/01/28 09:58:55;;;;;;;17.30;6.10;;;;;;;2.42;92.44;102702.63;5017007;28;20034;-74
2024/01/28 10:01:20;;;;;;;20.02;6.15;;;;;;;2.48;92.08;102693.72;5000466;28;20550;-74
2024/01/28 10:03:46;;;;;;;18.08;5.80;;;;;;;2.55;91.32;102698.06;5017214;28;20030;-74
2024/01/28 10:06:11;;;;;;;20.15;6.53;;;;;;;2.61;91.36;102698.00;5022109;28;20076;-75
2024/01/28 10:08:36;;;;;;;20.90;6.28;;;;;;;2.67;91.41;102702.38;5026961;28;20034;-75
2024/01/28 10:11:02;;;;;;;17.10;5.43;;;;;;;2.71;90.65;102683.75;5021446;28;20045;-75
2024/01/28 10:13:29;;;;;;;19.27;5.40;;;;;;;2.75;89.41;102674.84;5024170;28;20045;-75
2024/01/28 10:15:56;;;;;;;17.42;6.00;;;;;;;2.82;89.79;102675.63;5022771;28;20029;-73
2024/01/28 10:18:23;;;;;;;20.30;6.88;;;;;;;2.90;87.81;102672.88;5019043;28;20037;-73
2024/01/28 10:20:48;;;;;;;16.42;5.57;;;;;;;2.97;88.08;102678.13;5017888;28;20042;-73
2024/01/28 10:23:14;;;;;;;20.33;6.30;;;;;;;3.02;86.49;102672.75;5004079;28;20037;-73
2024/01/28 10:25:40;;;;;;;15.82;5.20;;;;;;;3.09;86.83;102673.53;5002611;28;20095;-73
2024/01/28 10:28:06;;;;;;;20.77;6.43;;;;;;;3.14;85.87;102677.91;5021684;28;20390;-74
2024/01/28 10:30:33;;;;;;;16.90;5.72;;;;;;;3.21;86.77;102665.44;5020201;28;20283;-73
2024/01/28 10:32:59;;;;;;;15.50;4.78;;;;;;;3.30;85.39;102667.09;5003909;28;20038;-73
2024/01/28 10:35:25;;;;;;;16.00;4.90;;;;;;;3.38;85.53;102672.28;4998686;28;20033;-72
2024/01/28 10:37:56;;;;;;;21.67;5.80;;;;;;;3.43;86.41;102671.34;5017775;28;20053;-72
2024/01/28 10:40:27;;;;;;;17.42;5.97;;;;;;;3.48;85.22;102666.84;5018831;28;20076;-73
2024/01/28 10:42:56;;;;;;;19.35;6.78;;;;;;;3.57;83.30;102672.91;4998336;28;20045;-73
2024/01/28 10:45:23;;;;;;;19.38;6.32;;;;;;;3.62;83.37;102669.28;4999354;28;20021;-73
2024/01/28 10:47:52;;;;;;;21.60;6.95;;;;;;;3.71;81.68;102675.38;5017771;28;20053;-73
2024/01/28 10:50:19;;;;;;;17.52;5.80;;;;;;;3.77;81.94;102673.50;5017792;28;20042;-74
2024/01/28 10:52:46;;;;;;;18.33;5.47;;;;;;;3.83;81.27;102662.75;4997741;28;23929;-72
2024/01/28 10:55:12;;;;;;;20.30;6.85;;;;;;;3.88;81.13;102662.69;5018229;28;20033;-73
2024/01/28 10:57:41;;;;;;;15.32;5.15;;;;;;;3.96;79.66;102657.25;4996767;28;20441;-73
2024/01/28 11:00:10;;;;;;;18.10;5.82;;;;;;;4.01;80.08;102650.94;4996883;28;20293;-74
2024/01/28 11:02:37;;;;;;;21.27;6.60;;;;;;;4.08;79.72;102641.06;4999516;28;20021;-74
2024/01/28 11:05:03;;;;;;;16.25;5.28;;;;;;;4.17;80.29;102643.59;5018237;28;20029;-72
2024/01/28 11:07:30;;;;;;;20.33;6.00;;;;;;;4.23;80.79;102633.72;5014636;28;20246;-72